EDT,Max TemperatureF,Mean TemperatureF,Min TemperatureF,Max Dew PointF,MeanDew PointF,Min DewpointF,Max Humidity, Mean Humidity, Min Humidity, Max Sea Level PressureIn, Mean Sea Level PressureIn, Min Sea Level PressureIn, Max VisibilityMiles, Mean VisibilityMiles, Min VisibilityMiles, Max Wind SpeedMPH, Mean Wind SpeedMPH, Max Gust SpeedMPH,PrecipitationIn, CloudCover, Events, WindDirDegrees
2013-8-1,78,73,68,70,65,63,94,82,65,30.06,29.93,29.84,10,9,5,20,9,28,1.13,6,Thunderstorm,181
2013-8-2,84,76,68,70,66,57,94,73,42,29.97,29.92,29.83,10,10,8,12,6,16,0.00,1,,252
2013-8-3,80,74,68,70,66,61,88,75,54,29.98,29.95,29.92,10,9,5,10,7,16,0.00,2,,263
2013-8-4,78,72,66,64,59,54,88,63,44,30.00,29.92,29.87,10,10,8,16,6,22,0.00,1,,309
2013-8-5,75,68,60,59,54,50,78,58,44,30.10,30.05,30.00,10,10,10,15,6,16,0.00,0,,321
2013-8-6,75,68,62,64,61,57,88,78,68,30.13,30.10,30.06,10,10,9,12,4,,0.01,5,,175
2013-8-7,75,70,66,70,66,63,94,81,78,30.15,30.11,30.07,10,10,3,16,8,21,0.39,7,,151
2013-8-8,82,78,73,72,69,66,89,78,70,30.09,30.07,30.04,10,10,8,16,12,23,0.00,1,,182
2013-8-9,89,81,73,75,73,72,94,82,62,30.04,29.94,29.85,10,10,2,18,11,23,0.53,3,Thunderstorm,201
2013-8-10,80,74,69,72,68,63,94,76,57,30.08,30.01,29.93,10,10,10,13,8,22,0.00,1,,284
2013-8-11,78,72,66,70,66,63,94,79,61,30.13,30.09,30.05,10,10,5,13,4,,0.00,3,,109
2013-8-12,84,76,69,72,70,68,94,81,62,30.06,29.99,29.94,10,9,5,9,2,,0.00,4,,179
2013-8-13,82,76,71,75,70,66,94,83,65,29.91,29.80,29.76,10,8,2,18,7,23,0.00,2,,223
2013-8-14,73,68,64,66,54,46,83,60,49,30.08,29.92,29.77,10,10,5,16,9,25,0.15,3,,324
2013-8-15,73,65,57,54,51,48,82,62,43,30.18,30.14,30.09,10,10,7,12,4,,0.00,0,,324
2013-8-16,75,64,53,61,54,50,94,67,41,30.22,30.18,30.14,10,10,10,12,3,16,0.00,0,,78
2013-8-17,75,66,57,61,57,54,88,69,53,30.28,30.25,30.20,10,10,10,14,5,20,0.00,0,,60
2013-8-18,73,70,64,64,61,55,78,70,60,30.24,30.19,30.14,10,10,10,18,7,24,0.00,7,,49
2013-8-19,75,70,64,64,63,57,88,78,65,30.18,30.14,30.09,10,10,10,12,4,,0.00,3,,246
2013-8-20,82,75,68,68,66,63,88,76,51,30.18,30.14,30.10,10,10,7,9,6,,0.00,1,,244
2013-8-21,86,76,66,72,68,64,94,78,58,30.22,30.17,30.10,10,9,4,14,5,17,0.00,0,,214
2013-8-22,84,76,68,73,68,63,94,81,66,30.11,30.02,29.94,10,9,4,13,6,24,0.56,3,Thunderstorm,193
2013-8-23,80,73,66,70,64,57,88,73,53,30.10,29.99,29.91,10,10,8,16,6,16,0.02,2,,341
2013-8-24,75,67,59,64,60,55,94,79,53,30.35,30.24,30.10,10,9,2,16,4,21,0.01,1,,57
2013-8-25,77,65,53,61,55,48,94,71,36,30.43,30.36,30.29,10,10,8,10,2,,0.00,0,,200
2013-8-26,82,72,62,64,60,55,82,66,51,30.31,30.17,30.01,10,10,10,15,8,18,0.00,0,,225
2013-8-27,84,78,71,70,66,64,83,68,55,30.01,29.93,29.89,10,10,10,14,10,21,0.00,1,,259
2013-8-28,82,75,68,73,69,64,94,86,70,29.93,29.88,29.84,10,6,2,9,2,,1.37,4,Thunderstorm,136
2013-8-29,75,72,66,70,66,63,94,81,65,30.04,29.96,29.85,10,8,2,20,7,25,0.02,5,,53
2013-8-30,80,72,64,68,66,61,94,80,61,30.06,30.00,29.93,10,10,3,14,4,16,0.00,4,,194
2013-8-31,84,76,69,72,69,64,88,78,66,29.95,29.90,29.85,10,10,10,17,11,22,0.00,0,,193